Nearby METAR Reports

 

KGRB - Ashwaubenon, Wisconsin, USA
Distance from station: NW 5mi, 8km
Updated: Sun, 03-Mar-2024 4:53pm CST
Clear
Clear
 Wind from SSE
Wind: SSE 30 mph , 48 km/h, Gust: 41 mph , 67 km/h
Temperature: 59°F , 15°C
Dew Point: 45°F , 7°C
Humidity: 59%
Barometer: 29.60 inHg , 1002.4 hPa
Clouds: Clear
Visibility: 10 miles , 16 km
2024/03/03 22:53 KGRB 032253Z AUTO 15026G36KT 10SM CLR 15/07 A2960 RMK AO2 PK WND 14040/2232 SLP027 T01500067
KATW - Appleton/Outagam, Wisconsin, USA
Distance from station: WSW 26mi, 42km
Updated: Sun, 03-Mar-2024 4:45pm CST
Partly cloudy
Partly cloudy
 Wind from SE
Wind: SE 20 mph , 31 km/h, Gust: 33 mph , 54 km/h
Temperature: 61°F , 16°C
Dew Point: 45°F , 7°C
Humidity: 55%
Barometer: 29.59 inHg , 1002 hPa
Clouds: Partly cloudy
Visibility: 10 miles , 16 km
Cloud details: Partly cloudy 12000 ft
2024/03/03 22:45 KATW 032245Z 14017G29KT 10SM SCT120 16/07 A2959
 
KMTW - Manitowac Muni, Wisconsin, USA
Distance from station: SE 29mi, 47km
Updated: Sun, 03-Mar-2024 4:56pm CST
Clear
Clear
 Wind from SSE
Wind: SSE 25 mph , 41 km/h, Gust: 33 mph , 54 km/h
Temperature: 52°F , 11°C
Dew Point: 43°F , 6°C
Humidity: 72%
Barometer: 29.67 inHg , 1004.7 hPa
Clouds: Clear
Visibility: 10 miles , 16 km
2024/03/03 22:56 KMTW 032256Z AUTO 15022G29KT 10SM CLR 11/06 A2967 RMK AO2 PK WND 14030/2241 SLP052 T01060056
KOCQ - Oconto, Wisconsin, USA
Distance from station: NNE 30mi, 49km
Updated: Sun, 03-Mar-2024 5:15pm CST
Clear
Clear
 Wind from SSE
Wind: SSE 16 mph , 26 km/h, Gust: 25 mph , 41 km/h
Temperature: 54°F , 12°C
Dew Point: 41°F , 5°C
Humidity: 63%
Barometer: 29.64 inHg , 1003.7 hPa
Clouds: Clear
Visibility: 10 miles , 16 km
2024/03/03 23:15 KOCQ 032315Z AUTO 16014G22KT 10SM CLR 12/05 A2964 RMK AO1 T01160051
 
KEZS - Shawano Muni, Wisconsin, USA
Distance from station: NW 35mi, 56km
Updated: Sun, 03-Mar-2024 5:15pm CST
Clear
Clear
 Wind from SSE
Wind: SSE 16 mph , 26 km/h, Gust: 26 mph , 43 km/h
Temperature: 61°F , 16°C
Dew Point: 43°F , 6°C
Humidity: 52%
Barometer: 29.59 inHg , 1002 hPa
Clouds: Clear
Visibility: 10 miles , 16 km
2024/03/03 23:15 KEZS 032315Z AUTO 15014G23KT 10SM CLR 16/06 A2959 RMK AO2 T01640056
KCLI - Clintonville, Wisconsin, USA
Distance from station: WNW 36mi, 58km
Updated: Sun, 03-Mar-2024 5:15pm CST
Clear
Clear
 Wind from SSE
Wind: SSE 18 mph , 30 km/h, Gust: 29 mph , 46 km/h
Temperature: 61°F , 16°C
Dew Point: 43°F , 6°C
Humidity: 52%
Barometer: 29.59 inHg , 1002 hPa
Clouds: Clear
Visibility: 10 miles , 16 km
2024/03/03 23:15 KCLI 032315Z AUTO 16016G25KT 10SM CLR 16/06 A2959 RMK AO2 T01570064
 
KOSH - Oshkosh, Wisconsin, USA
Distance from station: SW 41mi, 66km
Updated: Sun, 03-Mar-2024 4:53pm CST
Clear
Clear
 Wind from SSE
Wind: SSE 24 mph , 39 km/h, Gust: 37 mph , 59 km/h
Temperature: 64°F , 18°C
Dew Point: 45°F , 7°C
Humidity: 49%
Barometer: 29.56 inHg , 1001 hPa
Clouds: Clear
Visibility: 10 miles , 16 km
2024/03/03 22:53 KOSH 032253Z 15021G32KT 10SM CLR 18/07 A2956 RMK AO2 PK WND 15033/2221 SLP010 T01780072 $
KSUE - Sturgeon Bay, Wisconsin, USA
Distance from station: NE 42mi, 68km
Updated: Sun, 03-Mar-2024 4:56pm CST
Clear
Clear
 Wind from SSE
Wind: SSE 24 mph , 39 km/h, Gust: 37 mph , 59 km/h
Temperature: 55°F , 13°C
Dew Point: 43°F , 6°C
Humidity: 63%
Barometer: 29.66 inHg , 1004.4 hPa
Clouds: Clear
Visibility: 10 miles , 16 km
2024/03/03 22:56 KSUE 032256Z AUTO 16021G32KT 10SM CLR 13/06 A2966 RMK AO2 PK WND 17033/2234 SLP042 T01330056
 
KSBM - Sheboygan, Wisconsin, USA
Distance from station: SSE 46mi, 75km
Updated: Sun, 03-Mar-2024 4:53pm CST
Clear
Clear
 Wind from SSE
Wind: SSE 21 mph , 33 km/h, Gust: 45 mph , 72 km/h
Temperature: 55°F , 13°C
Dew Point: 41°F , 5°C
Humidity: 59%
Barometer: 29.67 inHg , 1004.7 hPa
Clouds: Clear
Visibility: 10 miles , 16 km
2024/03/03 22:53 KSBM 032253Z AUTO 16018G39KT 10SM CLR 13/05 A2967 RMK AO2 PK WND 16039/2248 SLP050 T01280050
KPCZ - Waupaca, Wisconsin, USA
Distance from station: W 48mi, 77km
Updated: Sun, 03-Mar-2024 5:15pm CST
Clear
Clear
 Wind from ESE
Wind: ESE 12 mph , 19 km/h
Temperature: 63°F , 17°C
Dew Point: 45°F , 7°C
Humidity: 52%
Barometer: 29.56 inHg , 1001 hPa
Clouds: Clear
Visibility: 10 miles , 16 km
2024/03/03 23:15 KPCZ 032315Z AUTO 12010KT 10SM CLR 17/07 A2956 RMK AO2 T01710069